createdAt,value
2022-11-17T00:00:05.488Z,36.00
2022-11-17T00:00:42.051Z,33.60
2022-11-17T00:01:22.007Z,33.38
2022-11-17T00:01:54.218Z,32.70
2022-11-17T00:02:26.128Z,32.38
2022-11-17T00:02:58.059Z,33.10
2022-11-17T00:03:29.885Z,35.08
2022-11-17T00:04:01.788Z,33.00
2022-11-17T00:04:33.663Z,32.33
2022-11-17T00:05:05.945Z,33.85
2022-11-17T00:05:37.800Z,35.55
2022-11-17T00:06:09.726Z,31.52
2022-11-17T00:06:41.872Z,34.92
2022-11-17T00:07:13.858Z,31.15
2022-11-17T00:07:46.036Z,32.55
2022-11-17T00:08:17.882Z,33.53
2022-11-17T00:08:49.811Z,31.52
2022-11-17T00:09:21.696Z,30.17
2022-11-17T00:09:53.504Z,33.17
2022-11-17T00:10:25.397Z,33.17
2022-11-17T00:11:03.818Z,32.45
2022-11-17T00:11:55.624Z,32.78
2022-11-17T00:12:46.456Z,30.60
2022-11-17T00:13:37.202Z,33.47
2022-11-17T00:14:28.283Z,34.08
2022-11-17T00:15:00.369Z,29.90
2022-11-17T00:15:32.303Z,33.25
2022-11-17T00:16:04.239Z,29.42
2022-11-17T00:16:36.055Z,31.60
2022-11-17T00:17:12.457Z,31.60
2022-11-17T00:17:47.933Z,28.85
2022-11-17T00:18:38.491Z,34.83
2022-11-17T00:19:28.717Z,31.73
2022-11-17T00:20:19.054Z,25.00
2022-11-17T00:21:09.447Z,29.92
2022-11-17T00:21:41.380Z,31.23
2022-11-17T00:22:13.228Z,29.25
2022-11-17T00:22:45.448Z,28.73
2022-11-17T00:23:17.321Z,29.45
2022-11-17T00:23:50.615Z,32.90
2022-11-17T00:24:24.099Z,29.00
2022-11-17T00:24:55.922Z,26.62
2022-11-17T00:25:27.794Z,29.42
2022-11-17T00:25:59.653Z,29.83
2022-11-17T00:26:34.061Z,29.40
2022-11-17T00:27:07.858Z,28.98
2022-11-17T00:27:39.749Z,29.30
2022-11-17T00:28:12.279Z,33.80
2022-11-17T00:28:44.435Z,31.15
2022-11-17T00:29:16.288Z,31.08
2022-11-17T00:29:48.203Z,28.12
2022-11-17T00:30:40.511Z,27.95
2022-11-17T00:31:34.663Z,30.92
2022-11-17T00:32:30.182Z,28.40
2022-11-17T00:33:22.702Z,27.95
2022-11-17T00:34:07.246Z,28.92
2022-11-17T00:34:39.132Z,28.75
2022-11-17T00:35:10.989Z,27.90
2022-11-17T00:35:42.900Z,34.10
2022-11-17T00:36:15.740Z,30.40
2022-11-17T00:36:49.827Z,28.55
2022-11-17T00:37:21.877Z,26.33
2022-11-17T00:38:12.416Z,29.23
2022-11-17T00:38:44.287Z,30.33
2022-11-17T00:39:18.500Z,26.85
2022-11-17T00:39:50.436Z,30.23
2022-11-17T00:40:22.296Z,28.15
2022-11-17T00:40:54.215Z,32.85
2022-11-17T00:41:26.047Z,28.55
2022-11-17T00:41:58.416Z,26.40
2022-11-17T00:42:30.306Z,27.20
2022-11-17T00:43:02.128Z,33.90
2022-11-17T00:43:34.308Z,26.65
2022-11-17T00:44:07.100Z,29.42
2022-11-17T00:44:39.255Z,26.58
2022-11-17T00:45:11.113Z,29.98
2022-11-17T00:45:42.979Z,27.17
2022-11-17T00:46:14.832Z,28.10
2022-11-17T00:46:47.263Z,30.08
2022-11-17T00:47:19.110Z,27.42
2022-11-17T00:47:50.978Z,30.58
2022-11-17T00:48:22.829Z,26.27
2022-11-17T00:48:54.916Z,26.27
2022-11-17T00:49:26.984Z,29.35
2022-11-17T00:49:59.099Z,32.67
2022-11-17T00:50:30.900Z,28.38
2022-11-17T00:51:05.985Z,27.23
2022-11-17T00:51:38.617Z,28.10
2022-11-17T00:52:10.744Z,29.40
2022-11-17T00:52:42.704Z,31.08
2022-11-17T00:53:14.529Z,30.67
2022-11-17T00:53:46.702Z,30.80
2022-11-17T00:54:18.693Z,30.60
2022-11-17T00:54:50.539Z,25.98
2022-11-17T00:55:23.194Z,27.83
2022-11-17T00:55:55.192Z,29.10
2022-11-17T00:56:27.407Z,29.27
2022-11-17T00:56:59.282Z,28.30
2022-11-17T00:57:31.140Z,27.55
2022-11-17T00:58:03.009Z,26.12
2022-11-17T00:58:36.499Z,28.62
2022-11-17T00:59:08.396Z,28.87
2022-11-17T00:59:40.294Z,29.02
2022-11-17T01:00:12.644Z,28.67
2022-11-17T01:00:44.870Z,28.35
2022-11-17T01:01:16.852Z,25.62
2022-11-17T01:01:48.824Z,27.95
2022-11-17T01:02:20.704Z,27.37
2022-11-17T01:02:52.621Z,29.45
2022-11-17T01:03:24.464Z,27.27
2022-11-17T01:04:14.540Z,29.20
2022-11-17T01:04:46.414Z,27.55
2022-11-17T01:05:18.280Z,29.08
2022-11-17T01:05:50.411Z,31.67
2022-11-17T01:06:22.314Z,28.30
2022-11-17T01:06:54.373Z,27.37
2022-11-17T01:07:26.352Z,26.27
2022-11-17T01:07:59.264Z,27.05
2022-11-17T01:08:31.313Z,26.55
2022-11-17T01:09:08.344Z,29.30
2022-11-17T01:09:40.190Z,27.55
2022-11-17T01:10:12.188Z,30.95
2022-11-17T01:10:44.094Z,28.27
2022-11-17T01:11:18.362Z,29.20
2022-11-17T01:11:52.455Z,31.15
2022-11-17T01:12:24.412Z,27.48
2022-11-17T01:12:56.231Z,29.90
2022-11-17T01:13:28.079Z,33.72
2022-11-17T01:14:00.996Z,27.73
2022-11-17T01:14:32.974Z,27.83
2022-11-17T01:15:05.232Z,32.88
2022-11-17T01:15:37.131Z,30.73
2022-11-17T01:16:13.130Z,27.92
2022-11-17T01:16:45.755Z,29.65
2022-11-17T01:17:17.591Z,28.23
2022-11-17T01:17:49.448Z,26.65
2022-11-17T01:18:21.311Z,28.55
2022-11-17T01:18:53.490Z,27.35
2022-11-17T01:19:25.612Z,33.30
2022-11-17T01:19:57.441Z,28.23
2022-11-17T01:20:29.295Z,26.27
2022-11-17T01:21:06.740Z,27.52
2022-11-17T01:21:38.800Z,27.83
2022-11-17T01:22:10.957Z,27.25
2022-11-17T01:22:42.826Z,29.37
2022-11-17T01:23:14.665Z,29.75
2022-11-17T01:23:47.599Z,29.00
2022-11-17T01:24:20.073Z,27.35
2022-11-17T01:24:51.935Z,29.55
2022-11-17T01:25:23.747Z,30.27
2022-11-17T01:26:08.371Z,28.83
2022-11-17T01:26:41.140Z,27.77
2022-11-17T01:27:13.305Z,28.52
2022-11-17T01:27:45.267Z,29.60
2022-11-17T01:28:17.134Z,32.97
2022-11-17T01:28:49.595Z,28.33
2022-11-17T01:29:21.542Z,29.08
2022-11-17T01:29:53.448Z,27.40
2022-11-17T01:30:25.333Z,29.98
2022-11-17T01:31:12.154Z,27.60
2022-11-17T01:31:45.511Z,30.02
2022-11-17T01:32:17.714Z,30.33
2022-11-17T01:32:49.585Z,26.45
2022-11-17T01:33:21.406Z,25.10
2022-11-17T01:33:53.550Z,26.73
2022-11-17T01:34:25.421Z,26.10
2022-11-17T01:34:57.304Z,26.62
2022-11-17T01:35:29.166Z,27.17
2022-11-17T01:36:06.712Z,28.10
2022-11-17T01:36:59.815Z,25.85
2022-11-17T01:37:31.948Z,25.80
2022-11-17T01:38:03.791Z,26.10
2022-11-17T01:38:35.700Z,29.55
2022-11-17T01:39:07.553Z,27.48
2022-11-17T01:39:39.480Z,26.25
2022-11-17T01:40:14.118Z,25.95
2022-11-17T01:40:46.014Z,26.45
2022-11-17T01:41:22.967Z,27.27
2022-11-17T01:41:55.430Z,28.92
2022-11-17T01:42:27.731Z,28.87
2022-11-17T01:42:59.893Z,23.52
2022-11-17T01:43:52.415Z,27.02
2022-11-17T01:44:36.503Z,27.02
2022-11-17T01:45:20.899Z,27.35
2022-11-17T01:45:53.202Z,24.08
2022-11-17T01:46:31.527Z,25.35
2022-11-17T01:47:05.122Z,27.15
2022-11-17T01:47:39.917Z,27.85
2022-11-17T01:48:13.783Z,25.83
2022-11-17T01:48:47.424Z,27.65
2022-11-17T01:49:28.197Z,24.85
2022-11-17T01:50:39.025Z,30.60
2022-11-17T01:51:13.332Z,26.80
2022-11-17T01:51:48.810Z,23.52
2022-11-17T01:52:21.141Z,29.85
2022-11-17T01:52:56.971Z,27.23
2022-11-17T01:53:31.373Z,28.27
2022-11-17T01:54:03.658Z,27.67
2022-11-17T01:54:38.396Z,30.30
2022-11-17T01:55:11.457Z,28.73
2022-11-17T01:55:56.700Z,26.10
2022-11-17T01:56:38.925Z,25.77
2022-11-17T01:57:14.619Z,27.70
2022-11-17T01:58:00.657Z,26.77
2022-11-17T01:58:41.633Z,30.17
2022-11-17T01:59:18.876Z,29.63
2022-11-17T02:00:00.499Z,27.85
2022-11-17T02:00:32.362Z,28.15
2022-11-17T02:01:04.561Z,25.52
2022-11-17T02:01:55.633Z,31.30
2022-11-17T02:02:28.805Z,24.17
2022-11-17T02:03:01.441Z,28.92
2022-11-17T02:03:35.606Z,31.67
2022-11-17T02:04:07.992Z,27.37
2022-11-17T02:04:42.359Z,28.10
2022-11-17T02:05:40.323Z,28.92
2022-11-17T02:06:19.110Z,27.45
2022-11-17T02:06:56.114Z,27.25
2022-11-17T02:07:35.897Z,27.55
2022-11-17T02:08:09.318Z,25.90
2022-11-17T02:08:46.224Z,28.50
2022-11-17T02:09:19.023Z,28.73
2022-11-17T02:09:52.839Z,28.45
2022-11-17T02:10:25.323Z,22.75
2022-11-17T02:10:58.480Z,28.12
2022-11-17T02:11:36.173Z,28.60
2022-11-17T02:12:10.377Z,28.90
2022-11-17T02:12:42.858Z,30.70
2022-11-17T02:13:15.331Z,29.65
2022-11-17T02:13:48.204Z,29.45
2022-11-17T02:14:20.398Z,28.45
2022-11-17T02:14:54.293Z,29.80
2022-11-17T02:15:28.153Z,30.33
2022-11-17T02:16:00.038Z,33.88
2022-11-17T02:16:31.931Z,29.12
2022-11-17T02:17:11.432Z,30.15
2022-11-17T02:17:45.173Z,28.92
2022-11-17T02:18:18.987Z,32.03
2022-11-17T02:18:50.979Z,30.77
2022-11-17T02:19:25.977Z,31.80
2022-11-17T02:20:23.837Z,29.73
2022-11-17T02:21:23.745Z,28.42
2022-11-17T02:22:29.505Z,30.05
2022-11-17T02:23:10.253Z,30.48
2022-11-17T02:24:41.076Z,31.27
2022-11-17T02:25:31.420Z,32.90
2022-11-17T02:26:40.737Z,28.40
2022-11-17T02:27:46.512Z,28.70
2022-11-17T02:28:28.721Z,28.17
2022-11-17T02:29:21.476Z,33.22
2022-11-17T02:30:05.708Z,29.90
2022-11-17T02:30:46.933Z,29.20
2022-11-17T02:31:26.002Z,29.90
2022-11-17T02:32:09.600Z,29.85
2022-11-17T02:33:01.815Z,33.30
2022-11-17T02:33:44.103Z,30.98
2022-11-17T02:34:43.604Z,32.72
2022-11-17T02:35:27.500Z,31.87
2022-11-17T02:36:08.614Z,31.75
2022-11-17T02:37:07.963Z,32.33
2022-11-17T02:38:11.245Z,28.02
2022-11-17T02:38:52.153Z,33.70
2022-11-17T02:39:42.775Z,34.30
2022-11-17T02:40:31.194Z,32.58
2022-11-17T02:41:09.644Z,32.25
2022-11-17T02:41:52.358Z,33.83
2022-11-17T02:42:52.262Z,34.30
2022-11-17T02:43:50.858Z,34.58
2022-11-17T02:44:31.697Z,32.13
2022-11-17T02:45:05.694Z,35.70
2022-11-17T02:45:52.053Z,33.67
2022-11-17T02:46:25.708Z,34.30
2022-11-17T02:47:10.876Z,32.63
2022-11-17T02:47:46.732Z,33.92
2022-11-17T02:48:32.545Z,31.98
2022-11-17T02:49:12.640Z,33.88
2022-11-17T02:49:59.269Z,32.75
2022-11-17T02:50:33.958Z,33.22
2022-11-17T02:51:10.857Z,32.88
2022-11-17T02:51:44.079Z,31.33
2022-11-17T02:52:18.033Z,34.15
2022-11-17T02:52:50.080Z,32.10
2022-11-17T02:53:25.443Z,33.95
2022-11-17T02:54:00.082Z,32.47
2022-11-17T02:54:32.856Z,33.28
2022-11-17T02:55:07.596Z,36.42
2022-11-17T02:55:40.402Z,34.83
2022-11-17T02:56:12.235Z,33.42
2022-11-17T02:56:44.653Z,34.08
2022-11-17T02:57:32.850Z,34.72
2022-11-17T02:58:09.872Z,34.60
2022-11-17T02:58:41.737Z,34.83
2022-11-17T02:59:17.507Z,35.15
2022-11-17T02:59:50.102Z,36.83
2022-11-17T03:00:22.082Z,33.38
2022-11-17T03:01:02.130Z,33.63
2022-11-17T03:01:50.573Z,33.45
2022-11-17T03:02:53.500Z,31.27
2022-11-17T03:03:37.383Z,33.28
2022-11-17T03:04:27.579Z,32.42
2022-11-17T03:05:18.976Z,31.70
2022-11-17T03:05:56.939Z,35.28
2022-11-17T03:06:56.231Z,31.60
2022-11-17T03:07:28.374Z,33.03
2022-11-17T03:08:09.061Z,31.58
2022-11-17T03:08:47.027Z,32.83
2022-11-17T03:09:30.328Z,39.78
2022-11-17T03:10:17.136Z,36.40
2022-11-17T03:11:03.738Z,32.20
2022-11-17T03:12:16.004Z,33.85
2022-11-17T03:13:12.868Z,34.33
2022-11-17T03:14:01.301Z,37.30
2022-11-17T03:14:53.370Z,30.88
2022-11-17T03:15:54.796Z,32.42
2022-11-17T03:16:45.557Z,32.33
2022-11-17T03:17:26.719Z,31.90
2022-11-17T03:18:17.418Z,32.70
2022-11-17T03:19:01.564Z,35.45
2022-11-17T03:19:38.129Z,33.05
2022-11-17T03:20:19.659Z,30.95
2022-11-17T03:21:12.864Z,31.73
2022-11-17T03:22:03.460Z,37.53
2022-11-17T03:22:50.198Z,33.97
2022-11-17T03:23:45.307Z,31.10
2022-11-17T03:24:23.429Z,32.28
2022-11-17T03:25:01.551Z,30.58
2022-11-17T03:25:37.888Z,31.98
2022-11-17T03:26:13.891Z,33.05
2022-11-17T03:27:00.895Z,33.53
2022-11-17T03:27:44.844Z,29.55
2022-11-17T03:28:19.452Z,30.37
2022-11-17T03:28:54.360Z,31.17
2022-11-17T03:29:30.172Z,30.95
2022-11-17T03:30:08.528Z,29.70
2022-11-17T03:30:42.901Z,30.60
2022-11-17T03:31:17.031Z,33.90
2022-11-17T03:31:53.505Z,33.42
2022-11-17T03:32:31.382Z,27.90
2022-11-17T03:33:10.355Z,30.35
2022-11-17T03:33:45.884Z,30.83
2022-11-17T03:34:23.340Z,34.78
2022-11-17T03:35:00.702Z,29.52
2022-11-17T03:35:38.654Z,31.37
2022-11-17T03:36:17.669Z,29.02
2022-11-17T03:36:53.358Z,31.00
2022-11-17T03:37:28.271Z,30.08
2022-11-17T03:38:15.886Z,33.05
2022-11-17T03:39:00.111Z,29.00
2022-11-17T03:39:34.835Z,32.53
2022-11-17T03:40:11.123Z,29.08
2022-11-17T03:40:47.362Z,33.58
2022-11-17T03:41:21.381Z,31.60
2022-11-17T03:42:00.345Z,29.52
2022-11-17T03:42:35.043Z,32.95
2022-11-17T03:43:09.577Z,32.97
2022-11-17T03:43:43.840Z,29.33
2022-11-17T03:44:19.255Z,32.15
2022-11-17T03:44:57.127Z,30.35
2022-11-17T03:45:35.947Z,30.17
2022-11-17T03:46:13.639Z,31.30
2022-11-17T03:46:48.662Z,37.83
2022-11-17T03:47:23.765Z,28.38
2022-11-17T03:48:14.543Z,33.15
2022-11-17T03:49:03.032Z,28.67
2022-11-17T03:49:53.866Z,28.10
2022-11-17T03:51:20.971Z,30.02
2022-11-17T03:51:53.069Z,26.95
2022-11-17T03:52:25.993Z,31.98
2022-11-17T03:52:57.882Z,27.70
2022-11-17T03:53:30.680Z,27.08
2022-11-17T03:54:02.670Z,29.83
2022-11-17T03:54:36.443Z,35.67
2022-11-17T03:55:09.325Z,31.25
2022-11-17T03:55:54.354Z,32.08
2022-11-17T03:56:38.246Z,31.33
2022-11-17T03:57:22.307Z,31.00
2022-11-17T03:58:04.314Z,29.67
2022-11-17T03:58:43.832Z,29.35
2022-11-17T03:59:21.754Z,31.27
2022-11-17T04:00:04.401Z,27.52
2022-11-17T04:00:46.573Z,30.25
2022-11-17T04:01:20.920Z,25.37
2022-11-17T04:01:53.250Z,29.23
2022-11-17T04:02:26.918Z,26.77
2022-11-17T04:02:59.304Z,28.42
2022-11-17T04:03:35.187Z,29.80
2022-11-17T04:04:07.415Z,28.73
2022-11-17T04:04:57.946Z,26.50
2022-11-17T04:05:29.790Z,27.02
2022-11-17T04:06:01.948Z,29.20
2022-11-17T04:06:34.076Z,32.72
2022-11-17T04:07:05.941Z,30.85
2022-11-17T04:07:40.302Z,29.12
2022-11-17T04:08:12.175Z,33.20
2022-11-17T04:08:44.124Z,29.52
2022-11-17T04:09:19.909Z,27.80
2022-11-17T04:09:54.855Z,28.67
2022-11-17T04:10:26.839Z,24.52
2022-11-17T04:11:17.324Z,26.08
2022-11-17T04:12:08.369Z,27.17
2022-11-17T04:12:59.240Z,33.95
2022-11-17T04:13:49.683Z,25.00
2022-11-17T04:14:40.118Z,31.17
2022-11-17T04:15:31.356Z,22.85
2022-11-17T04:16:35.103Z,23.50
2022-11-17T04:17:07.307Z,22.90
2022-11-17T04:17:39.121Z,24.35
2022-11-17T04:18:11.091Z,26.73
2022-11-17T04:18:42.960Z,27.65
2022-11-17T04:19:14.778Z,26.50
2022-11-17T04:19:46.708Z,24.17
2022-11-17T04:20:18.577Z,26.90
2022-11-17T04:20:55.755Z,26.95
2022-11-17T04:21:27.585Z,27.98
2022-11-17T04:21:59.499Z,26.27
2022-11-17T04:22:31.606Z,28.25
2022-11-17T04:23:11.350Z,26.75
2022-11-17T04:23:43.460Z,31.48
2022-11-17T04:24:15.323Z,28.65
2022-11-17T04:24:47.178Z,30.60
2022-11-17T04:25:39.015Z,27.37
2022-11-17T04:26:30.435Z,33.30
2022-11-17T04:27:20.885Z,27.37
2022-11-17T04:28:12.099Z,29.30
2022-11-17T04:28:47.848Z,30.88
2022-11-17T04:29:19.739Z,31.48
2022-11-17T04:29:51.690Z,32.20
2022-11-17T04:30:23.558Z,29.55
2022-11-17T04:30:55.378Z,32.05
2022-11-17T04:31:29.400Z,32.58
2022-11-17T04:32:01.308Z,33.30
2022-11-17T04:32:33.196Z,33.88
2022-11-17T04:33:05.320Z,32.80
2022-11-17T04:33:38.986Z,33.20
2022-11-17T04:34:10.871Z,35.40
2022-11-17T04:34:42.750Z,35.47
2022-11-17T04:35:14.670Z,36.28
2022-11-17T04:35:50.456Z,31.98
2022-11-17T04:36:25.600Z,35.53
2022-11-17T04:36:57.550Z,34.97
2022-11-17T04:37:29.435Z,34.15
2022-11-17T04:38:01.327Z,34.28
2022-11-17T04:38:34.002Z,30.58
2022-11-17T04:39:05.867Z,33.33
2022-11-17T04:39:38.929Z,40.00
2022-11-17T04:40:11.173Z,35.33
2022-11-17T04:41:02.979Z,32.28
2022-11-17T04:41:54.091Z,34.22
2022-11-17T04:42:57.696Z,35.60
2022-11-17T04:43:29.573Z,31.77
2022-11-17T04:44:02.721Z,31.40
2022-11-17T04:44:34.548Z,32.50
2022-11-17T04:45:06.811Z,37.47
2022-11-17T04:45:38.694Z,34.45
2022-11-17T04:46:10.611Z,35.88
2022-11-17T04:46:46.462Z,32.17
2022-11-17T04:47:18.349Z,37.63
2022-11-17T04:47:50.198Z,33.45
2022-11-17T04:48:22.026Z,34.42
2022-11-17T04:48:54.530Z,34.72
2022-11-17T04:49:26.834Z,37.03
2022-11-17T04:49:58.689Z,38.45
2022-11-17T04:50:30.591Z,35.95
2022-11-17T04:51:02.893Z,37.67
2022-11-17T04:51:35.491Z,34.90
2022-11-17T04:52:07.406Z,36.05
2022-11-17T04:52:39.255Z,34.53
2022-11-17T04:53:11.091Z,32.70
2022-11-17T04:53:44.485Z,32.33
2022-11-17T04:54:19.160Z,36.03
2022-11-17T04:54:51.312Z,33.80
2022-11-17T04:55:23.159Z,33.33
2022-11-17T04:55:59.162Z,32.67
2022-11-17T04:56:31.167Z,35.75
2022-11-17T04:57:05.647Z,30.48
2022-11-17T04:57:37.508Z,31.52
2022-11-17T04:58:10.999Z,34.20
2022-11-17T04:58:43.124Z,37.15
2022-11-17T04:59:15.108Z,33.05
2022-11-17T04:59:47.049Z,32.63
2022-11-17T05:00:19.742Z,32.97
2022-11-17T05:00:51.738Z,37.75
2022-11-17T05:01:24.633Z,34.78
2022-11-17T05:01:59.831Z,36.30
2022-11-17T05:02:34.485Z,31.00
2022-11-17T05:03:06.514Z,35.38
2022-11-17T05:03:50.634Z,31.55
2022-11-17T05:04:41.009Z,34.08
2022-11-17T05:05:12.891Z,31.35
2022-11-17T05:05:46.488Z,30.70
2022-11-17T05:06:24.592Z,31.42
2022-11-17T05:06:56.480Z,30.65
2022-11-17T05:07:28.413Z,31.87
2022-11-17T05:08:00.470Z,35.60
2022-11-17T05:08:32.375Z,29.83
2022-11-17T05:09:15.856Z,31.35
2022-11-17T05:09:47.727Z,32.83
2022-11-17T05:10:39.622Z,31.25
2022-11-17T05:11:32.460Z,30.90
2022-11-17T05:12:22.779Z,32.35
2022-11-17T05:13:13.328Z,33.03
2022-11-17T05:13:45.251Z,33.63
2022-11-17T05:14:19.613Z,31.02
2022-11-17T05:14:52.396Z,30.52
2022-11-17T05:15:44.256Z,32.50
2022-11-17T05:16:35.349Z,30.65
2022-11-17T05:17:10.996Z,32.05
2022-11-17T05:17:43.322Z,28.98
2022-11-17T05:18:15.227Z,32.28
2022-11-17T05:18:47.121Z,30.27
2022-11-17T05:19:22.017Z,31.10
2022-11-17T05:19:53.957Z,32.25
2022-11-17T05:20:25.926Z,28.77
2022-11-17T05:21:05.609Z,33.83
2022-11-17T05:21:37.760Z,29.10
2022-11-17T05:22:29.556Z,32.35
2022-11-17T05:23:20.184Z,30.92
2022-11-17T05:23:54.872Z,36.58
2022-11-17T05:24:27.227Z,31.17
2022-11-17T05:24:59.423Z,30.08
2022-11-17T05:25:31.272Z,32.20
2022-11-17T05:26:03.207Z,34.20
2022-11-17T05:26:37.503Z,35.28
2022-11-17T05:27:09.664Z,36.85
2022-11-17T05:27:41.502Z,37.25
2022-11-17T05:28:13.422Z,29.25
2022-11-17T05:28:45.684Z,36.83
2022-11-17T05:29:20.565Z,33.90
2022-11-17T05:29:52.693Z,35.97
2022-11-17T05:30:24.598Z,34.42
2022-11-17T05:30:56.451Z,35.92
2022-11-17T05:31:29.415Z,34.90
2022-11-17T05:32:01.325Z,34.95
2022-11-17T05:32:33.685Z,31.77
2022-11-17T05:33:05.540Z,36.95
2022-11-17T05:33:38.183Z,32.38
2022-11-17T05:34:12.594Z,33.20
2022-11-17T05:34:44.989Z,34.33
2022-11-17T05:35:16.896Z,32.47
2022-11-17T05:35:48.713Z,35.75
2022-11-17T05:36:21.575Z,33.33
2022-11-17T05:36:54.414Z,33.28
2022-11-17T05:37:26.351Z,36.92
2022-11-17T05:37:58.519Z,33.35
2022-11-17T05:38:30.363Z,33.83
2022-11-17T05:39:03.140Z,41.72
2022-11-17T05:39:35.000Z,38.55
2022-11-17T05:40:07.645Z,35.30
2022-11-17T05:40:39.492Z,34.92
2022-11-17T05:41:11.361Z,34.20
2022-11-17T05:41:43.418Z,34.50
2022-11-17T05:42:15.293Z,36.35
2022-11-17T05:42:47.142Z,36.45
2022-11-17T05:43:19.420Z,33.45
2022-11-17T05:43:52.164Z,30.95
2022-11-17T05:44:24.064Z,34.08
2022-11-17T05:44:55.923Z,36.55
2022-11-17T05:45:27.820Z,37.17
2022-11-17T05:45:59.663Z,35.67
2022-11-17T05:46:31.765Z,37.90
2022-11-17T05:47:03.604Z,36.45
2022-11-17T05:47:35.423Z,36.03
2022-11-17T05:48:07.311Z,33.25
2022-11-17T05:48:40.411Z,33.47
2022-11-17T05:49:12.266Z,35.85
2022-11-17T05:49:44.146Z,33.17
2022-11-17T05:50:16.066Z,35.88
2022-11-17T05:50:47.958Z,35.38
2022-11-17T05:51:21.904Z,39.45
2022-11-17T05:51:53.770Z,38.22
2022-11-17T05:52:25.604Z,37.35
2022-11-17T05:52:57.462Z,42.47
2022-11-17T05:53:29.859Z,38.95
2022-11-17T05:54:02.063Z,44.25
2022-11-17T05:54:33.960Z,36.50
2022-11-17T05:55:06.403Z,46.92
2022-11-17T05:55:38.287Z,39.30
2022-11-17T05:56:33.700Z,37.78
2022-11-17T05:57:10.730Z,42.80
2022-11-17T05:57:43.629Z,37.55
2022-11-17T05:58:27.041Z,37.10
2022-11-17T05:59:14.532Z,41.10
2022-11-17T05:59:57.357Z,41.63
2022-11-17T06:00:30.597Z,36.58
2022-11-17T06:01:03.801Z,36.15
2022-11-17T06:01:38.159Z,38.22
2022-11-17T06:02:15.331Z,37.25
2022-11-17T06:02:51.993Z,44.90
2022-11-17T06:03:33.551Z,43.25
2022-11-17T06:04:07.947Z,42.60
2022-11-17T06:04:40.022Z,41.10
2022-11-17T06:05:17.042Z,46.00
2022-11-17T06:05:53.251Z,40.30
2022-11-17T06:06:25.776Z,41.42
2022-11-17T06:06:59.446Z,41.80
2022-11-17T06:07:31.502Z,39.00
2022-11-17T06:08:03.532Z,42.22
2022-11-17T06:08:36.586Z,38.15
2022-11-17T06:09:08.524Z,37.28
2022-11-17T06:09:42.165Z,39.03
2022-11-17T06:10:14.071Z,40.88
2022-11-17T06:10:46.033Z,37.67
2022-11-17T06:11:19.059Z,43.38
2022-11-17T06:11:51.191Z,40.58
2022-11-17T06:12:23.124Z,39.13
2022-11-17T06:12:55.004Z,37.08
2022-11-17T06:13:29.133Z,39.72
2022-11-17T06:14:01.064Z,34.17
2022-11-17T06:14:34.169Z,36.15
2022-11-17T06:15:06.531Z,34.83
2022-11-17T06:15:38.699Z,38.20
2022-11-17T06:16:14.236Z,32.53
2022-11-17T06:16:48.497Z,35.47
2022-11-17T06:17:23.189Z,37.58
2022-11-17T06:18:00.463Z,36.53
2022-11-17T06:18:37.546Z,34.95
2022-11-17T06:19:18.948Z,34.45
2022-11-17T06:19:58.254Z,37.83
2022-11-17T06:20:33.584Z,34.05
2022-11-17T06:21:07.473Z,36.47
2022-11-17T06:22:10.137Z,33.90
2022-11-17T06:22:32.588Z,35.42
2022-11-17T06:23:07.135Z,35.67
2022-11-17T06:23:39.243Z,37.97
2022-11-17T06:24:11.257Z,38.17
2022-11-17T06:24:45.442Z,43.25
2022-11-17T06:25:19.697Z,37.15
2022-11-17T06:25:51.590Z,90.43
2022-11-17T06:26:23.607Z,194.65
2022-11-17T06:26:55.808Z,329.65
2022-11-17T06:27:29.217Z,282.00
2022-11-17T06:28:04.312Z,150.87
2022-11-17T06:28:39.161Z,112.82
2022-11-17T06:29:12.349Z,81.10
2022-11-17T06:29:45.266Z,70.00
2022-11-17T06:30:17.743Z,59.42
2022-11-17T06:30:50.203Z,49.83
2022-11-17T06:31:22.286Z,43.63
2022-11-17T06:31:56.613Z,43.28
2022-11-17T06:32:28.655Z,41.37
2022-11-17T06:33:01.118Z,43.53
2022-11-17T06:33:36.235Z,40.53
2022-11-17T06:34:09.421Z,40.05
2022-11-17T06:34:43.169Z,40.63
2022-11-17T06:35:16.575Z,40.88
2022-11-17T06:35:49.563Z,42.35
2022-11-17T06:36:21.419Z,34.40
2022-11-17T06:36:53.685Z,38.80
2022-11-17T06:37:25.602Z,33.92
2022-11-17T06:37:57.418Z,33.53
2022-11-17T06:38:29.826Z,46.05
2022-11-17T06:39:02.092Z,38.58
2022-11-17T06:39:33.973Z,38.50
2022-11-17T06:40:06.515Z,36.45
2022-11-17T06:40:38.459Z,36.25
2022-11-17T06:41:12.001Z,38.72
2022-11-17T06:41:44.227Z,39.72
2022-11-17T06:42:16.175Z,44.63
2022-11-17T06:43:04.071Z,41.63
2022-11-17T06:43:36.360Z,55.03
2022-11-17T06:44:08.892Z,47.92
2022-11-17T06:44:40.821Z,51.78
2022-11-17T06:45:12.954Z,53.65
2022-11-17T06:45:46.661Z,45.47
2022-11-17T06:46:19.262Z,48.22
2022-11-17T06:46:51.201Z,45.95
2022-11-17T06:47:23.307Z,47.65
2022-11-17T06:47:55.691Z,44.63
2022-11-17T06:48:27.662Z,43.87
2022-11-17T06:48:59.934Z,43.13
2022-11-17T06:49:32.336Z,48.65
2022-11-17T06:50:04.816Z,51.30
2022-11-17T06:50:37.066Z,50.88
2022-11-17T06:51:08.951Z,48.05
2022-11-17T06:51:44.914Z,43.10
2022-11-17T06:52:17.376Z,41.63
2022-11-17T06:52:49.280Z,48.25
2022-11-17T06:53:26.679Z,50.47
2022-11-17T06:53:58.624Z,43.45
2022-11-17T06:54:30.540Z,47.13
2022-11-17T06:55:02.812Z,46.45
2022-11-17T06:55:36.657Z,44.88
2022-11-17T06:56:08.650Z,44.30
2022-11-17T06:56:40.807Z,40.90
2022-11-17T06:57:12.738Z,41.13
2022-11-17T06:57:48.938Z,43.17
2022-11-17T06:58:23.916Z,47.88
2022-11-17T06:58:56.556Z,49.97
2022-11-17T06:59:28.537Z,47.78
2022-11-17T07:00:00.456Z,42.67
2022-11-17T07:00:33.917Z,44.13
2022-11-17T07:01:11.710Z,46.90
2022-11-17T07:01:43.863Z,47.47
2022-11-17T07:02:15.746Z,42.90
2022-11-17T07:02:47.673Z,42.58
2022-11-17T07:03:19.586Z,43.13
2022-11-17T07:03:52.208Z,42.70
2022-11-17T07:04:24.097Z,47.42
2022-11-17T07:04:55.996Z,43.03
2022-11-17T07:05:28.230Z,47.70
2022-11-17T07:06:01.023Z,46.55
2022-11-17T07:06:36.981Z,52.03
2022-11-17T07:07:08.979Z,43.22
2022-11-17T07:07:40.981Z,43.90
2022-11-17T07:08:12.914Z,48.15
2022-11-17T07:08:45.800Z,45.45
2022-11-17T07:09:17.816Z,46.70
2022-11-17T07:09:49.700Z,44.47
2022-11-17T07:10:21.595Z,40.25
2022-11-17T07:10:54.851Z,36.35
2022-11-17T07:11:27.010Z,40.90
2022-11-17T07:11:58.953Z,37.22
2022-11-17T07:12:30.906Z,36.40
2022-11-17T07:13:03.322Z,36.35
2022-11-17T07:13:35.385Z,36.92
2022-11-17T07:14:07.365Z,34.70
2022-11-17T07:14:39.270Z,31.52
2022-11-17T07:15:11.461Z,30.02
2022-11-17T07:15:43.361Z,34.15
2022-11-17T07:16:23.221Z,35.20
2022-11-17T07:16:56.317Z,29.48
2022-11-17T07:17:29.728Z,32.58
2022-11-17T07:18:01.791Z,29.40
2022-11-17T07:18:34.699Z,31.58
2022-11-17T07:19:08.389Z,29.50
2022-11-17T07:19:40.325Z,28.25
2022-11-17T07:20:12.506Z,31.58
2022-11-17T07:20:44.763Z,32.40
2022-11-17T07:21:16.789Z,28.73
2022-11-17T07:21:48.849Z,32.50
2022-11-17T07:22:21.102Z,30.45
2022-11-17T07:22:58.432Z,31.87
2022-11-17T07:23:34.461Z,29.52
2022-11-17T07:24:06.698Z,27.87
2022-11-17T07:24:38.614Z,56.37
2022-11-17T07:25:11.853Z,89.72
2022-11-17T07:25:43.805Z,71.97
2022-11-17T07:26:15.732Z,54.22
2022-11-17T07:26:47.702Z,50.53
2022-11-17T07:27:19.617Z,49.67
2022-11-17T07:27:58.939Z,33.88
2022-11-17T07:28:31.340Z,32.63
2022-11-17T07:29:03.574Z,39.28
2022-11-17T07:29:35.550Z,41.90
2022-11-17T07:30:08.198Z,38.75
2022-11-17T07:30:40.858Z,32.80
2022-11-17T07:31:12.807Z,33.35
2022-11-17T07:31:44.705Z,29.30
2022-11-17T07:32:16.689Z,26.37
2022-11-17T07:32:54.407Z,27.00
2022-11-17T07:33:27.376Z,28.35
2022-11-17T07:33:59.617Z,30.62
2022-11-17T07:34:31.624Z,33.08
2022-11-17T07:35:05.924Z,35.72
2022-11-17T07:35:37.802Z,29.77
2022-11-17T07:36:14.733Z,30.17
2022-11-17T07:36:46.642Z,23.80
2022-11-17T07:37:18.711Z,29.80
2022-11-17T07:37:50.626Z,26.15
2022-11-17T07:38:23.491Z,24.90
2022-11-17T07:38:55.676Z,26.70
2022-11-17T07:39:27.552Z,27.23
2022-11-17T07:40:00.845Z,26.87
2022-11-17T07:40:32.839Z,25.52
2022-11-17T07:41:06.052Z,24.45
2022-11-17T07:41:38.090Z,28.77
2022-11-17T07:42:10.012Z,30.12
2022-11-17T07:42:42.001Z,29.48
2022-11-17T07:43:13.975Z,24.60
2022-11-17T07:43:45.843Z,23.62
2022-11-17T07:44:18.066Z,28.60
2022-11-17T07:44:49.946Z,29.42
2022-11-17T07:45:25.081Z,33.03